Terminal Aerodrome Forecast
Issued by NWS

Home | Current Version | Previous Version | Text Only | Print | Product List | Glossary On
Versions: 1 2 3 4 5 6 7 8 9 10 11 12 13 14 15 16 17 18 19 20 21 22 23 24 25
000
FTUS43 KSGF 171500 AAA
TAFJLN
TAF AMD
KJLN 171502Z 1715/1812 20008KT P6SM FEW070
     FM171800 21008KT P6SM SCT030 BKN060
     FM172200 15005KT P6SM VCSH BKN100
     FM180600 VRB04KT 6SM BR SCT010 OVC100=

USA.gov is the U.S. government's official web portal to all federal, state and local government web resources and services.